createdAt,value
2018-11-07T00:02:10.755Z,73.20
2018-11-07T00:04:39.056Z,73.60
2018-11-07T00:07:07.316Z,73.30
2018-11-07T00:09:35.714Z,72.40
2018-11-07T00:12:04.046Z,72.70
2018-11-07T00:14:32.388Z,72.90
2018-11-07T00:17:00.760Z,72.70
2018-11-07T00:19:29.248Z,72.20
2018-11-07T00:21:57.832Z,72.50
2018-11-07T00:24:26.249Z,71.60
2018-11-07T00:26:54.912Z,71.10
2018-11-07T00:29:23.451Z,71.40
2018-11-07T00:31:51.986Z,72.20
2018-11-07T00:34:20.497Z,72.70
2018-11-07T00:36:48.967Z,73.40
2018-11-07T00:39:17.537Z,73.40
2018-11-07T00:41:46.032Z,73.40
2018-11-07T00:44:14.733Z,73.40
2018-11-07T00:46:42.994Z,73.10
2018-11-07T00:49:11.354Z,73.40
2018-11-07T00:51:39.613Z,83.60
2018-11-07T00:54:07.976Z,73.50
2018-11-07T00:56:36.401Z,78.10
2018-11-07T00:59:04.815Z,78.80
2018-11-07T01:04:01.155Z,74.40
2018-11-07T01:06:29.678Z,73.40
2018-11-07T01:08:58.073Z,74.10
2018-11-07T01:11:26.540Z,73.50
2018-11-07T01:13:55.008Z,73.90
2018-11-07T01:16:23.379Z,73.40
2018-11-07T01:18:51.872Z,73.80
2018-11-07T01:21:20.312Z,72.90
2018-11-07T01:23:48.692Z,74.80
2018-11-07T01:26:17.011Z,74.60
2018-11-07T01:28:45.293Z,74.90
2018-11-07T01:31:13.630Z,72.40
2018-11-07T01:33:41.856Z,72.50
2018-11-07T01:36:10.118Z,72.90
2018-11-07T01:38:38.423Z,73.70
2018-11-07T01:41:06.765Z,73.50
2018-11-07T01:43:35.066Z,73.60
2018-11-07T01:46:06.393Z,74.40
2018-11-07T01:48:34.808Z,74.00
2018-11-07T01:51:03.211Z,75.60
2018-11-07T01:53:31.540Z,75.60
2018-11-07T01:56:00.127Z,75.20
2018-11-07T01:58:28.551Z,76.70
2018-11-07T02:00:57.035Z,82.40
2018-11-07T02:03:25.484Z,76.00
2018-11-07T02:05:53.817Z,76.10
2018-11-07T02:08:25.300Z,76.80
2018-11-07T02:10:53.809Z,77.20
2018-11-07T02:13:22.258Z,77.80
2018-11-07T02:15:50.557Z,78.00
2018-11-07T02:18:18.828Z,77.60
2018-11-07T02:20:47.075Z,76.40
2018-11-07T02:23:15.368Z,76.40
2018-11-07T02:25:43.641Z,77.10
2018-11-07T02:28:11.979Z,77.40
2018-11-07T02:30:40.233Z,77.30
2018-11-07T02:33:08.537Z,77.20
2018-11-07T02:38:04.999Z,78.20
2018-11-07T02:40:33.304Z,78.00
2018-11-07T02:43:01.687Z,78.80
2018-11-07T02:45:30.139Z,79.20
2018-11-07T02:47:58.491Z,78.10
2018-11-07T02:50:26.905Z,77.80
2018-11-07T02:52:55.101Z,78.40
2018-11-07T02:55:23.363Z,79.00
2018-11-07T02:57:51.611Z,83.40
2018-11-07T03:00:19.918Z,81.50
2018-11-07T03:02:48.183Z,82.70
2018-11-07T03:05:16.516Z,83.80
2018-11-07T03:07:44.927Z,84.20
2018-11-07T03:10:13.663Z,85.00
2018-11-07T03:12:42.292Z,84.00
2018-11-07T03:15:11.002Z,83.00
2018-11-07T03:17:39.274Z,82.40
2018-11-07T03:20:09.168Z,82.30
2018-11-07T03:22:37.639Z,82.00
2018-11-07T03:25:06.124Z,83.50
2018-11-07T03:27:34.711Z,84.10
2018-11-07T03:30:03.041Z,82.90
2018-11-07T03:32:31.334Z,81.80
2018-11-07T03:34:59.564Z,81.90
2018-11-07T03:37:27.825Z,82.10
2018-11-07T03:39:56.360Z,81.60
2018-11-07T03:42:24.482Z,82.30
2018-11-07T03:44:52.845Z,79.60
2018-11-07T03:47:21.143Z,78.90
2018-11-07T03:52:17.600Z,78.70
2018-11-07T03:54:45.977Z,79.20
2018-11-07T03:57:14.244Z,79.80
2018-11-07T03:59:42.648Z,84.00
2018-11-07T04:04:38.962Z,78.60
2018-11-07T04:07:07.252Z,83.30
2018-11-07T04:09:35.516Z,79.60
2018-11-07T04:12:03.858Z,80.40
2018-11-07T04:14:32.145Z,81.00
2018-11-07T04:17:00.395Z,80.20
2018-11-07T04:19:28.690Z,80.60
2018-11-07T04:21:57.021Z,80.00
2018-11-07T04:24:25.338Z,80.00
2018-11-07T04:26:53.611Z,80.10
2018-11-07T04:29:21.903Z,80.80
2018-11-07T04:31:50.282Z,81.60
2018-11-07T04:34:18.572Z,81.40
2018-11-07T04:36:46.790Z,81.30
2018-11-07T04:39:15.300Z,81.20
2018-11-07T04:41:43.508Z,81.30
2018-11-07T04:44:11.826Z,81.40
2018-11-07T04:46:40.173Z,82.20
2018-11-07T04:49:08.418Z,81.60
2018-11-07T04:51:36.707Z,82.30
2018-11-07T04:54:05.418Z,81.70
2018-11-07T04:56:33.727Z,80.90
2018-11-07T04:59:02.067Z,80.30
2018-11-07T05:01:30.440Z,80.10
2018-11-07T05:08:55.080Z,80.20
2018-11-07T05:11:23.601Z,80.20
2018-11-07T05:13:52.176Z,79.50
2018-11-07T05:16:20.674Z,79.40
2018-11-07T05:18:49.128Z,79.60
2018-11-07T05:21:17.626Z,80.10
2018-11-07T05:23:46.098Z,80.30
2018-11-07T05:26:14.487Z,81.00
2018-11-07T05:28:42.802Z,80.60
2018-11-07T05:33:39.055Z,80.30
2018-11-07T05:36:07.802Z,79.80
2018-11-07T05:38:36.079Z,80.40
2018-11-07T05:41:04.638Z,81.30
2018-11-07T05:43:32.955Z,81.30
2018-11-07T05:46:01.202Z,81.40
2018-11-07T05:48:29.493Z,81.30
2018-11-07T05:50:57.778Z,81.00
2018-11-07T05:53:26.052Z,92.10
2018-11-07T05:55:54.463Z,84.80
2018-11-07T05:58:23.037Z,79.80
2018-11-07T06:03:19.403Z,78.60
2018-11-07T06:08:15.869Z,78.30
2018-11-07T06:10:44.233Z,77.20
2018-11-07T06:13:12.617Z,76.70
2018-11-07T06:15:40.879Z,77.10
2018-11-07T06:18:09.144Z,77.00
2018-11-07T06:20:37.447Z,78.00
2018-11-07T06:23:06.832Z,79.20
2018-11-07T06:25:35.105Z,79.00
2018-11-07T06:28:03.409Z,78.90
2018-11-07T06:30:31.709Z,78.40
2018-11-07T06:32:59.979Z,78.20
2018-11-07T06:35:28.236Z,79.40
2018-11-07T06:37:56.497Z,80.10
2018-11-07T06:40:24.770Z,79.70
2018-11-07T06:42:53.006Z,79.60
2018-11-07T06:45:21.413Z,79.80
2018-11-07T06:47:49.694Z,80.20
2018-11-07T06:50:18.002Z,79.70
2018-11-07T06:52:46.321Z,78.60
2018-11-07T06:55:14.605Z,78.70
2018-11-07T06:57:42.953Z,79.80
2018-11-07T07:00:14.897Z,80.70
2018-11-07T07:02:44.083Z,81.20
2018-11-07T07:05:12.388Z,81.50
2018-11-07T07:10:11.936Z,81.60
2018-11-07T07:12:40.384Z,81.70
2018-11-07T07:15:10.719Z,82.50
2018-11-07T07:20:13.565Z,81.70
2018-11-07T07:22:42.380Z,82.30
2018-11-07T07:25:11.390Z,81.20
2018-11-07T07:27:39.898Z,82.40
2018-11-07T07:30:10.849Z,82.10
2018-11-07T07:32:39.444Z,82.70
2018-11-07T07:35:07.789Z,81.00
2018-11-07T07:37:36.041Z,82.40
2018-11-07T07:40:05.517Z,83.20
2018-11-07T07:42:33.856Z,85.10
2018-11-07T07:45:02.131Z,85.60
2018-11-07T07:47:30.435Z,85.40
2018-11-07T07:49:58.804Z,83.80
2018-11-07T07:54:55.338Z,83.70
2018-11-07T07:57:23.570Z,84.80
2018-11-07T07:59:51.886Z,86.10
2018-11-07T08:02:20.227Z,86.90
2018-11-07T08:04:48.590Z,88.70
2018-11-07T08:07:16.872Z,88.30
2018-11-07T08:09:45.175Z,87.70
2018-11-07T08:14:41.557Z,89.20
2018-11-07T08:17:09.894Z,85.90
2018-11-07T08:19:38.238Z,86.90
2018-11-07T08:22:06.633Z,85.50
2018-11-07T08:24:34.941Z,82.00
2018-11-07T08:27:03.262Z,80.20
2018-11-07T08:29:31.571Z,79.60
2018-11-07T08:31:59.816Z,79.90
2018-11-07T08:34:28.177Z,80.80
2018-11-07T08:36:56.490Z,80.70
2018-11-07T08:39:24.780Z,79.20
2018-11-07T08:44:21.194Z,77.50
2018-11-07T08:46:49.497Z,74.90
2018-11-07T08:49:17.861Z,75.80
2018-11-07T08:51:47.238Z,74.90
2018-11-07T08:54:15.526Z,73.90
2018-11-07T08:56:43.850Z,73.40
2018-11-07T08:59:12.097Z,71.50
2018-11-07T09:01:40.454Z,70.50
2018-11-07T09:04:08.816Z,70.30
2018-11-07T09:06:37.130Z,70.60
2018-11-07T09:09:08.479Z,69.30
2018-11-07T09:11:36.793Z,69.20
2018-11-07T09:14:05.074Z,67.60
2018-11-07T09:16:33.383Z,67.60
2018-11-07T09:19:01.684Z,65.80
2018-11-07T09:21:29.930Z,64.80
2018-11-07T09:23:58.321Z,65.50
2018-11-07T09:26:26.727Z,64.80
2018-11-07T09:28:54.991Z,63.10
2018-11-07T09:31:23.279Z,63.20
2018-11-07T09:33:51.579Z,63.90
2018-11-07T09:36:19.951Z,61.00
2018-11-07T09:38:48.394Z,60.70
2018-11-07T09:41:16.870Z,60.90
2018-11-07T09:43:45.312Z,61.10
2018-11-07T09:46:13.779Z,60.40
2018-11-07T09:48:42.673Z,60.00
2018-11-07T09:51:10.958Z,59.60
2018-11-07T09:53:39.302Z,59.20
2018-11-07T09:56:07.588Z,59.00
2018-11-07T09:58:35.871Z,58.80
2018-11-07T10:01:04.400Z,58.50
2018-11-07T10:03:32.702Z,58.40
2018-11-07T10:06:00.984Z,58.30
2018-11-07T10:08:29.276Z,58.30
2018-11-07T10:10:57.613Z,58.20
2018-11-07T10:13:25.912Z,57.90
2018-11-07T10:15:54.223Z,58.00
2018-11-07T10:18:22.506Z,57.80
2018-11-07T10:25:46.921Z,56.90
2018-11-07T10:28:15.372Z,56.40
2018-11-07T10:30:43.535Z,55.90
2018-11-07T10:33:11.847Z,55.40
2018-11-07T10:35:40.376Z,55.20
2018-11-07T10:38:08.828Z,54.10
2018-11-07T10:40:36.897Z,54.60
2018-11-07T10:43:05.372Z,54.40
2018-11-07T10:45:33.707Z,54.00
2018-11-07T10:48:02.006Z,53.80
2018-11-07T10:50:30.331Z,54.50
2018-11-07T10:52:58.555Z,54.20
2018-11-07T10:55:26.839Z,52.70
2018-11-07T10:57:55.153Z,52.20
2018-11-07T11:00:28.859Z,52.30
2018-11-07T11:03:07.488Z,51.40
2018-11-07T11:05:35.919Z,50.90
2018-11-07T11:08:04.461Z,49.40
2018-11-07T11:10:32.742Z,49.00
2018-11-07T11:15:29.017Z,50.00
2018-11-07T11:17:57.332Z,52.00
2018-11-07T11:20:25.652Z,49.20
2018-11-07T11:22:53.976Z,49.60
2018-11-07T11:27:50.417Z,47.20
2018-11-07T11:30:18.748Z,48.10
2018-11-07T11:32:47.293Z,46.90
2018-11-07T11:35:15.776Z,46.30
2018-11-07T11:37:44.074Z,45.80
2018-11-07T11:40:14.394Z,46.60
2018-11-07T11:42:43.553Z,45.70
2018-11-07T11:45:13.330Z,46.10
2018-11-07T11:47:42.285Z,46.70
2018-11-07T11:50:13.921Z,46.00
2018-11-07T11:52:43.206Z,45.60
2018-11-07T11:55:11.786Z,45.10
2018-11-07T11:57:41.050Z,45.80
2018-11-07T12:02:38.222Z,44.50
2018-11-07T12:05:07.774Z,44.80
2018-11-07T12:07:36.105Z,45.40
2018-11-07T12:10:05.112Z,45.70
2018-11-07T12:12:33.434Z,45.60
2018-11-07T12:15:01.956Z,45.60
2018-11-07T12:17:30.201Z,45.80
2018-11-07T12:19:58.556Z,45.30
2018-11-07T12:22:27.032Z,45.40
2018-11-07T12:24:55.333Z,45.40
2018-11-07T12:27:24.729Z,45.10
2018-11-07T12:32:21.104Z,45.00
2018-11-07T12:34:49.404Z,45.60
2018-11-07T12:37:17.750Z,46.10
2018-11-07T12:42:14.171Z,45.60
2018-11-07T12:44:42.475Z,45.80
2018-11-07T12:47:10.812Z,45.30
2018-11-07T12:49:39.073Z,45.60
2018-11-07T12:52:07.346Z,45.70
2018-11-07T12:54:35.667Z,45.80
2018-11-07T12:57:04.043Z,46.00
2018-11-07T12:59:32.312Z,45.20
2018-11-07T13:02:00.532Z,44.40
2018-11-07T13:04:28.922Z,44.30
2018-11-07T13:06:57.170Z,43.50
2018-11-07T13:09:25.484Z,41.80
2018-11-07T13:11:53.791Z,42.30
2018-11-07T13:14:22.088Z,39.00
2018-11-07T13:16:50.382Z,39.00
2018-11-07T13:19:18.690Z,40.20
2018-11-07T13:21:47.023Z,40.40
2018-11-07T13:24:15.391Z,39.20
2018-11-07T13:26:43.562Z,39.50
2018-11-07T13:29:11.796Z,40.00
2018-11-07T13:31:40.037Z,40.30
2018-11-07T13:34:08.327Z,40.90
2018-11-07T13:36:36.647Z,39.60
2018-11-07T13:39:08.465Z,38.00
2018-11-07T13:41:36.382Z,38.50
2018-11-07T13:46:32.757Z,36.00
2018-11-07T13:56:25.430Z,38.10
2018-11-07T13:58:53.748Z,38.10
2018-11-07T14:01:22.287Z,37.60
2018-11-07T14:03:50.607Z,35.90
2018-11-07T14:06:19.201Z,36.10
2018-11-07T14:08:47.620Z,35.90
2018-11-07T14:11:16.082Z,36.40
2018-11-07T14:13:44.378Z,37.00
2018-11-07T14:16:12.796Z,37.30
2018-11-07T14:18:41.096Z,37.20
2018-11-07T14:21:09.476Z,37.20
2018-11-07T14:23:37.783Z,37.50
2018-11-07T14:28:34.163Z,37.10
2018-11-07T14:31:02.372Z,37.10
2018-11-07T14:33:31.205Z,36.70
2018-11-07T14:35:59.567Z,37.80
2018-11-07T14:38:27.967Z,38.20
2018-11-07T14:40:56.223Z,37.50
2018-11-07T14:43:24.526Z,37.20
2018-11-07T14:45:52.959Z,37.90
2018-11-07T14:48:21.250Z,38.90
2018-11-07T14:50:49.732Z,39.10
2018-11-07T14:53:17.964Z,39.60
2018-11-07T14:55:46.278Z,40.00
2018-11-07T14:58:14.711Z,39.80
2018-11-07T15:00:43.024Z,39.90
2018-11-07T15:03:11.302Z,38.90
2018-11-07T15:05:42.653Z,39.70
2018-11-07T15:08:10.987Z,41.20
2018-11-07T15:10:39.248Z,39.30
2018-11-07T15:13:07.541Z,40.10
2018-11-07T15:18:03.784Z,39.80
2018-11-07T15:20:32.282Z,41.40
2018-11-07T15:23:00.609Z,41.30
2018-11-07T15:25:28.892Z,41.90
2018-11-07T15:32:52.976Z,43.70
2018-11-07T15:35:21.236Z,45.90
2018-11-07T15:37:49.577Z,45.30
2018-11-07T15:40:18.244Z,42.90
2018-11-07T15:42:47.046Z,43.50
2018-11-07T15:45:16.476Z,42.40
2018-11-07T15:47:44.890Z,42.60
2018-11-07T15:50:18.562Z,42.70
2018-11-07T15:52:47.645Z,43.60
2018-11-07T15:55:15.868Z,43.20
2018-11-07T15:57:44.423Z,44.10
2018-11-07T16:00:15.912Z,44.70
2018-11-07T16:02:44.200Z,46.40
2018-11-07T16:05:13.764Z,46.80
2018-11-07T16:07:42.132Z,47.50
2018-11-07T16:10:11.618Z,48.00
2018-11-07T16:12:40.587Z,48.40
2018-11-07T16:15:10.799Z,49.90
2018-11-07T16:17:39.598Z,49.80
2018-11-07T16:20:10.995Z,50.30
2018-11-07T16:22:39.549Z,50.80
2018-11-07T16:25:08.053Z,50.80
2018-11-07T16:27:36.244Z,51.50
2018-11-07T16:30:06.769Z,54.40
2018-11-07T16:32:35.353Z,51.90
2018-11-07T16:35:03.951Z,52.30
2018-11-07T16:37:32.478Z,62.00
2018-11-07T16:40:01.260Z,53.60
2018-11-07T16:42:29.827Z,54.10
2018-11-07T16:44:58.655Z,55.20
2018-11-07T16:47:27.296Z,55.90
2018-11-07T16:49:56.427Z,56.10
2018-11-07T16:52:25.642Z,56.80
2018-11-07T16:54:54.270Z,57.20
2018-11-07T16:57:22.889Z,57.30
2018-11-07T16:59:51.576Z,57.70
2018-11-07T17:02:21.044Z,58.80
2018-11-07T17:04:49.845Z,59.20
2018-11-07T17:07:19.300Z,61.00
2018-11-07T17:09:48.099Z,65.00
2018-11-07T17:12:16.633Z,68.70
2018-11-07T17:14:45.205Z,72.50
2018-11-07T17:17:14.519Z,76.20
2018-11-07T17:19:43.146Z,77.90
2018-11-07T17:22:11.738Z,77.80
2018-11-07T17:24:40.567Z,76.80
2018-11-07T17:27:09.357Z,77.70
2018-11-07T17:29:40.438Z,78.60
2018-11-07T17:32:09.873Z,99.90
2018-11-07T17:34:38.302Z,78.80
2018-11-07T17:37:06.513Z,78.80
2018-11-07T17:39:35.089Z,78.60
2018-11-07T17:44:33.480Z,79.00
2018-11-07T17:47:01.883Z,90.70
2018-11-07T17:49:30.643Z,81.60
2018-11-07T17:51:59.537Z,81.70
2018-11-07T17:54:29.297Z,82.90
2018-11-07T17:56:58.130Z,82.40
2018-11-07T17:59:26.692Z,82.40
2018-11-07T18:01:55.313Z,83.30
2018-11-07T18:04:23.803Z,84.60
2018-11-07T18:06:55.460Z,83.20
2018-11-07T18:09:24.628Z,83.00
2018-11-07T18:11:53.350Z,83.60
2018-11-07T18:14:21.892Z,84.00
2018-11-07T18:16:50.704Z,83.40
2018-11-07T18:19:18.851Z,82.80
2018-11-07T18:21:47.500Z,82.60
2018-11-07T18:24:16.144Z,82.10
2018-11-07T18:26:45.005Z,82.20
2018-11-07T18:29:13.952Z,82.30
2018-11-07T18:31:42.517Z,81.10
2018-11-07T18:34:11.123Z,81.00
2018-11-07T18:36:39.533Z,98.00
2018-11-07T18:39:09.846Z,79.10
2018-11-07T18:41:38.830Z,79.10
2018-11-07T18:44:07.554Z,78.90
2018-11-07T18:46:36.187Z,98.60
2018-11-07T18:49:05.093Z,98.10
2018-11-07T18:54:02.141Z,84.50
2018-11-07T18:56:30.894Z,84.60
2018-11-07T18:58:59.444Z,85.40
2018-11-07T19:01:27.822Z,83.70
2018-11-07T19:03:58.891Z,80.60
2018-11-07T19:06:27.648Z,81.80
2018-11-07T19:08:56.143Z,83.20
2018-11-07T19:11:25.413Z,85.90
2018-11-07T19:13:54.428Z,84.90
2018-11-07T19:16:23.666Z,83.90
2018-11-07T19:18:52.491Z,83.30
2018-11-07T19:21:21.136Z,84.10
2018-11-07T19:23:49.730Z,86.20
2018-11-07T19:26:19.414Z,86.70
2018-11-07T19:28:47.608Z,84.50
2018-11-07T19:31:15.948Z,83.60
2018-11-07T19:33:44.830Z,83.30
2018-11-07T19:36:13.634Z,83.00
2018-11-07T19:38:42.565Z,82.50
2018-11-07T19:41:11.123Z,99.90
2018-11-07T19:43:39.841Z,80.20
2018-11-07T19:46:08.709Z,80.00
2018-11-07T19:48:37.233Z,86.40
2018-11-07T19:56:03.957Z,81.00
2018-11-07T19:58:32.516Z,81.80
2018-11-07T20:01:02.477Z,81.20
2018-11-07T20:03:31.532Z,81.10
2018-11-07T20:06:00.866Z,81.70
2018-11-07T20:08:30.171Z,81.00
2018-11-07T20:10:59.017Z,80.10
2018-11-07T20:13:28.224Z,79.20
2018-11-07T20:15:56.812Z,78.40
2018-11-07T20:18:25.431Z,79.00
2018-11-07T20:20:54.289Z,79.90
2018-11-07T20:23:23.201Z,79.10
2018-11-07T20:25:53.212Z,79.80
2018-11-07T20:28:22.763Z,80.00
2018-11-07T20:30:50.923Z,80.60
2018-11-07T20:33:20.250Z,81.30
2018-11-07T20:35:49.171Z,81.80
2018-11-07T20:38:22.265Z,80.60
2018-11-07T20:40:51.156Z,80.60
2018-11-07T20:43:20.482Z,98.00
2018-11-07T20:45:50.335Z,81.70
2018-11-07T20:48:21.825Z,81.70
2018-11-07T20:50:50.152Z,81.90
2018-11-07T20:53:18.315Z,81.80
2018-11-07T20:55:46.500Z,82.10
2018-11-07T20:58:14.699Z,82.80
2018-11-07T21:00:42.870Z,82.30
2018-11-07T21:03:11.009Z,81.80
2018-11-07T21:05:39.209Z,81.60
2018-11-07T21:08:07.366Z,80.80
2018-11-07T21:10:35.693Z,80.70
2018-11-07T21:13:03.947Z,81.10
2018-11-07T21:15:32.198Z,82.00
2018-11-07T21:18:00.442Z,81.90
2018-11-07T21:20:29.409Z,82.90
2018-11-07T21:22:57.775Z,83.40
2018-11-07T21:25:26.093Z,84.20
2018-11-07T21:27:54.291Z,84.50
2018-11-07T21:30:22.577Z,85.50
2018-11-07T21:32:50.873Z,84.80
2018-11-07T21:35:19.456Z,83.50
2018-11-07T21:37:47.740Z,83.00
2018-11-07T21:40:16.877Z,81.30
2018-11-07T21:42:45.992Z,80.60
2018-11-07T21:45:14.919Z,80.00
2018-11-07T21:47:43.523Z,79.70
2018-11-07T21:50:13.144Z,80.30
2018-11-07T21:52:41.453Z,87.30
2018-11-07T21:55:09.743Z,80.90
2018-11-07T21:57:38.330Z,80.60
2018-11-07T22:00:13.326Z,81.30
2018-11-07T22:02:41.532Z,81.40
2018-11-07T22:05:10.323Z,81.40
2018-11-07T22:07:40.161Z,81.70
2018-11-07T22:10:09.392Z,80.40
2018-11-07T22:12:37.645Z,80.20
2018-11-07T22:15:06.461Z,81.00
2018-11-07T22:17:34.843Z,80.90
2018-11-07T22:20:03.273Z,82.20
2018-11-07T22:22:31.629Z,83.40
2018-11-07T22:24:59.978Z,81.80
2018-11-07T22:27:28.305Z,82.50
2018-11-07T22:29:56.649Z,82.70
2018-11-07T22:32:24.973Z,82.60
2018-11-07T22:34:53.218Z,83.30
2018-11-07T22:37:21.433Z,83.00
2018-11-07T22:39:49.771Z,83.00
2018-11-07T22:42:18.079Z,82.80
2018-11-07T22:47:14.425Z,83.30
2018-11-07T22:49:42.717Z,84.40
2018-11-07T22:52:11.079Z,84.00
2018-11-07T22:54:39.310Z,83.90
2018-11-07T23:02:03.716Z,82.80
2018-11-07T23:04:32.048Z,82.50
2018-11-07T23:07:00.523Z,82.50
2018-11-07T23:09:28.745Z,82.40
2018-11-07T23:11:57.020Z,83.00
2018-11-07T23:20:14.621Z,81.80
2018-11-07T23:22:42.847Z,81.90
2018-11-07T23:25:11.046Z,84.20
2018-11-07T23:27:39.277Z,84.70
2018-11-07T23:30:07.859Z,82.70
2018-11-07T23:32:36.107Z,82.40
2018-11-07T23:35:05.041Z,82.50
2018-11-07T23:37:33.252Z,82.90
2018-11-07T23:40:01.461Z,83.00
2018-11-07T23:42:29.659Z,83.30
2018-11-07T23:44:57.959Z,83.30
2018-11-07T23:47:26.255Z,83.40
2018-11-07T23:49:54.351Z,83.00
2018-11-07T23:52:27.988Z,81.00
2018-11-07T23:54:56.291Z,80.10
2018-11-07T23:57:24.514Z,80.10
2018-11-07T23:59:52.710Z,80.10
